Time,TemperatureF,DewpointF,PressureIn,WindDirection,WindDirectionDegrees,WindSpeedMPH,WindSpeedGustMPH,Humidity,HourlyPrecipIn,Conditions,Clouds,dailyrainin,SoftwareType,DateUTC
2013-02-26 00:02:00,37.0,17.7,-100.00,North,-999,-999.0,-999.0,45,-99.99,,,-99.99,WSDL version 420,2013-02-26 07:02:00,
2013-02-26 00:07:00,37.0,17.7,-100.00,North,-999,-999.0,-999.0,45,-99.99,,,-99.99,WSDL version 420,2013-02-26 07:07:00,
2013-02-26 00:12:00,37.0,17.6,-100.00,North,-999,-999.0,-999.0,45,-99.99,,,-99.99,WSDL version 420,2013-02-26 07:12:00,
2013-02-26 00:17:00,36.9,17.5,-100.00,North,-999,-999.0,-999.0,45,-99.99,,,-99.99,WSDL version 420,2013-02-26 07:17:00,
2013-02-26 00:22:00,36.9,17.5,-100.00,North,-999,-999.0,-999.0,45,-99.99,,,-99.99,WSDL version 420,2013-02-26 07:22:00,
2013-02-26 00:27:00,36.9,17.5,-100.00,North,-999,-999.0,-999.0,45,-99.99,,,-99.99,WSDL version 420,2013-02-26 07:27:00,
2013-02-26 00:32:00,36.7,17.4,-100.00,North,-999,-999.0,-999.0,45,-99.99,,,-99.99,WSDL version 420,2013-02-26 07:32:00,
2013-02-26 00:37:00,36.7,17.3,-100.00,North,-999,-999.0,-999.0,45,-99.99,,,-99.99,WSDL version 420,2013-02-26 07:37:00,
2013-02-26 00:42:00,36.7,17.3,-100.00,North,-999,-999.0,-999.0,45,-99.99,,,-99.99,WSDL version 420,2013-02-26 07:42:00,
2013-02-26 00:47:00,36.5,17.2,-100.00,North,-999,-999.0,-999.0,45,-99.99,,,-99.99,WSDL version 420,2013-02-26 07:47:00,
2013-02-26 00:52:00,36.5,17.2,-100.00,North,-999,-999.0,-999.0,45,-99.99,,,-99.99,WSDL version 420,2013-02-26 07:52:00,
2013-02-26 00:57:00,36.5,17.2,-100.00,North,-999,-999.0,-999.0,45,-99.99,,,-99.99,WSDL version 420,2013-02-26 07:57:00,
2013-02-26 01:02:00,36.3,17.0,-100.00,North,-999,-999.0,-999.0,45,-99.99,,,-99.99,WSDL version 420,2013-02-26 08:02:00,
2013-02-26 01:14:00,36.3,17.0,-100.00,North,-999,-999.0,-999.0,45,-99.99,,,-99.99,WSDL version 420,2013-02-26 08:14:00,
2013-02-26 01:19:00,36.2,16.9,-100.00,North,-999,-999.0,-999.0,45,-99.99,,,-99.99,WSDL version 420,2013-02-26 08:19:00,
2013-02-26 01:24:00,36.1,16.8,-100.00,North,-999,-999.0,-999.0,45,-99.99,,,-99.99,WSDL version 420,2013-02-26 08:24:00,
2013-02-26 01:29:00,36.1,16.8,-100.00,North,-999,-999.0,-999.0,45,-99.99,,,-99.99,WSDL version 420,2013-02-26 08:29:00,
2013-02-26 01:34:00,36.0,16.7,-100.00,North,-999,-999.0,-999.0,45,-99.99,,,-99.99,WSDL version 420,2013-02-26 08:34:00,
2013-02-26 01:39:00,35.9,16.6,-100.00,North,-999,-999.0,-999.0,45,-99.99,,,-99.99,WSDL version 420,2013-02-26 08:39:00,
2013-02-26 01:44:00,35.8,16.5,-100.00,North,-999,-999.0,-999.0,45,-99.99,,,-99.99,WSDL version 420,2013-02-26 08:44:00,
2013-02-26 01:49:00,35.8,16.5,-100.00,North,-999,-999.0,-999.0,45,-99.99,,,-99.99,WSDL version 420,2013-02-26 08:49:00,
2013-02-26 01:54:00,35.6,16.4,-100.00,North,-999,-999.0,-999.0,45,-99.99,,,-99.99,WSDL version 420,2013-02-26 08:54:00,
2013-02-26 01:59:00,35.6,16.4,-100.00,North,-999,-999.0,-999.0,45,-99.99,,,-99.99,WSDL version 420,2013-02-26 08:59:00,
2013-02-26 02:14:00,35.5,16.6,-100.00,North,-999,-999.0,-999.0,46,-99.99,,,-99.99,WSDL version 420,2013-02-26 09:14:00,
2013-02-26 02:19:00,35.4,16.7,-100.00,North,-999,-999.0,-999.0,46,-99.99,,,-99.99,WSDL version 420,2013-02-26 09:19:00,
2013-02-26 02:24:00,35.2,16.5,-100.00,North,-999,-999.0,-999.0,46,-99.99,,,-99.99,WSDL version 420,2013-02-26 09:24:00,
2013-02-26 02:29:00,35.4,16.7,-100.00,North,-999,-999.0,-999.0,46,-99.99,,,-99.99,WSDL version 420,2013-02-26 09:29:00,
2013-02-26 02:34:00,35.4,16.7,-100.00,North,-999,-999.0,-999.0,46,-99.99,,,-99.99,WSDL version 420,2013-02-26 09:34:00,
2013-02-26 02:39:00,35.4,16.7,-100.00,North,-999,-999.0,-999.0,46,-99.99,,,-99.99,WSDL version 420,2013-02-26 09:39:00,
2013-02-26 02:44:00,35.4,16.7,-100.00,North,-999,-999.0,-999.0,46,-99.99,,,-99.99,WSDL version 420,2013-02-26 09:44:00,
2013-02-26 02:49:00,35.4,16.7,-100.00,North,-999,-999.0,-999.0,46,-99.99,,,-99.99,WSDL version 420,2013-02-26 09:49:00,
2013-02-26 02:54:00,35.3,16.6,-100.00,North,-999,-999.0,-999.0,46,-99.99,,,-99.99,WSDL version 420,2013-02-26 09:54:00,
2013-02-26 02:59:00,35.2,16.5,-100.00,North,-999,-999.0,-999.0,46,-99.99,,,-99.99,WSDL version 420,2013-02-26 09:59:00,
2013-02-26 03:14:00,34.9,15.7,-100.00,North,-999,-999.0,-999.0,45,-99.99,,,-99.99,WSDL version 420,2013-02-26 10:14:00,
2013-02-26 03:19:00,34.7,15.5,-100.00,North,-999,-999.0,-999.0,45,-99.99,,,-99.99,WSDL version 420,2013-02-26 10:19:00,
2013-02-26 03:24:00,34.7,15.5,-100.00,North,-999,-999.0,-999.0,45,-99.99,,,-99.99,WSDL version 420,2013-02-26 10:24:00,
2013-02-26 03:29:00,34.7,15.5,-100.00,North,-999,-999.0,-999.0,45,-99.99,,,-99.99,WSDL version 420,2013-02-26 10:29:00,
2013-02-26 03:34:00,34.7,15.5,-100.00,North,-999,-999.0,-999.0,45,-99.99,,,-99.99,WSDL version 420,2013-02-26 10:34:00,
2013-02-26 03:39:00,34.5,15.4,-100.00,North,-999,-999.0,-999.0,45,-99.99,,,-99.99,WSDL version 420,2013-02-26 10:39:00,
2013-02-26 03:44:00,34.5,15.4,-100.00,North,-999,-999.0,-999.0,45,-99.99,,,-99.99,WSDL version 420,2013-02-26 10:44:00,
2013-02-26 03:49:00,34.5,15.4,-100.00,North,-999,-999.0,-999.0,45,-99.99,,,-99.99,WSDL version 420,2013-02-26 10:49:00,
2013-02-26 03:54:00,34.5,15.4,-100.00,North,-999,-999.0,-999.0,45,-99.99,,,-99.99,WSDL version 420,2013-02-26 10:54:00,
2013-02-26 03:59:00,34.3,15.1,-100.00,North,-999,-999.0,-999.0,44,-99.99,,,-99.99,WSDL version 420,2013-02-26 10:59:00,
2013-02-26 04:04:00,34.3,14.7,-100.00,North,-999,-999.0,-999.0,44,-99.99,,,-99.99,WSDL version 420,2013-02-26 11:04:00,
2013-02-26 04:09:00,34.2,14.6,-100.00,North,-999,-999.0,-999.0,44,-99.99,,,-99.99,WSDL version 420,2013-02-26 11:09:00,
2013-02-26 04:14:00,34.2,14.5,-100.00,North,-999,-999.0,-999.0,44,-99.99,,,-99.99,WSDL version 420,2013-02-26 11:14:00,
2013-02-26 04:19:00,34.0,14.4,-100.00,North,-999,-999.0,-999.0,44,-99.99,,,-99.99,WSDL version 420,2013-02-26 11:19:00,
2013-02-26 04:24:00,34.0,14.4,-100.00,North,-999,-999.0,-999.0,44,-99.99,,,-99.99,WSDL version 420,2013-02-26 11:24:00,
2013-02-26 04:29:00,34.0,14.4,-100.00,North,-999,-999.0,-999.0,44,-99.99,,,-99.99,WSDL version 420,2013-02-26 11:29:00,
2013-02-26 04:34:00,33.8,14.2,-100.00,North,-999,-999.0,-999.0,44,-99.99,,,-99.99,WSDL version 420,2013-02-26 11:34:00,
2013-02-26 04:39:00,33.8,14.2,-100.00,North,-999,-999.0,-999.0,44,-99.99,,,-99.99,WSDL version 420,2013-02-26 11:39:00,
2013-02-26 04:44:00,34.0,14.4,-100.00,North,-999,-999.0,-999.0,44,-99.99,,,-99.99,WSDL version 420,2013-02-26 11:44:00,
2013-02-26 04:49:00,34.0,14.4,-100.00,North,-999,-999.0,-999.0,44,-99.99,,,-99.99,WSDL version 420,2013-02-26 11:49:00,
2013-02-26 04:54:00,33.9,14.3,-100.00,North,-999,-999.0,-999.0,44,-99.99,,,-99.99,WSDL version 420,2013-02-26 11:54:00,
2013-02-26 04:59:00,33.8,14.2,-100.00,North,-999,-999.0,-999.0,44,-99.99,,,-99.99,WSDL version 420,2013-02-26 11:59:00,
2013-02-26 05:04:00,33.8,14.2,-100.00,North,-999,-999.0,-999.0,44,-99.99,,,-99.99,WSDL version 420,2013-02-26 12:04:00,
2013-02-26 05:09:00,33.7,14.5,-100.00,North,-999,-999.0,-999.0,45,-99.99,,,-99.99,WSDL version 420,2013-02-26 12:09:00,
2013-02-26 05:14:00,33.6,14.5,-100.00,North,-999,-999.0,-999.0,45,-99.99,,,-99.99,WSDL version 420,2013-02-26 12:14:00,
2013-02-26 05:19:00,33.6,14.5,-100.00,North,-999,-999.0,-999.0,45,-99.99,,,-99.99,WSDL version 420,2013-02-26 12:19:00,
2013-02-26 05:24:00,33.6,14.5,-100.00,North,-999,-999.0,-999.0,45,-99.99,,,-99.99,WSDL version 420,2013-02-26 12:24:00,
2013-02-26 05:29:00,33.4,14.4,-100.00,North,-999,-999.0,-999.0,45,-99.99,,,-99.99,WSDL version 420,2013-02-26 12:29:00,
2013-02-26 05:34:00,33.4,14.3,-100.00,North,-999,-999.0,-999.0,45,-99.99,,,-99.99,WSDL version 420,2013-02-26 12:34:00,
2013-02-26 05:39:00,33.4,14.3,-100.00,North,-999,-999.0,-999.0,45,-99.99,,,-99.99,WSDL version 420,2013-02-26 12:39:00,
2013-02-26 05:44:00,33.4,14.4,-100.00,North,-999,-999.0,-999.0,45,-99.99,,,-99.99,WSDL version 420,2013-02-26 12:44:00,
2013-02-26 05:49:00,33.4,14.4,-100.00,North,-999,-999.0,-999.0,45,-99.99,,,-99.99,WSDL version 420,2013-02-26 12:49:00,
2013-02-26 05:54:00,33.4,14.4,-100.00,North,-999,-999.0,-999.0,45,-99.99,,,-99.99,WSDL version 420,2013-02-26 12:54:00,
2013-02-26 05:59:00,33.4,14.4,-100.00,North,-999,-999.0,-999.0,45,-99.99,,,-99.99,WSDL version 420,2013-02-26 12:59:00,
2013-02-26 06:04:00,33.4,14.4,-100.00,North,-999,-999.0,-999.0,45,-99.99,,,-99.99,WSDL version 420,2013-02-26 13:04:00,
2013-02-26 06:09:00,33.4,14.4,-100.00,North,-999,-999.0,-999.0,45,-99.99,,,-99.99,WSDL version 420,2013-02-26 13:09:00,
2013-02-26 06:14:00,33.4,14.2,-100.00,North,-999,-999.0,-999.0,44,-99.99,,,-99.99,WSDL version 420,2013-02-26 13:14:00,
2013-02-26 06:19:00,33.4,13.9,-100.00,North,-999,-999.0,-999.0,44,-99.99,,,-99.99,WSDL version 420,2013-02-26 13:19:00,
2013-02-26 06:24:00,33.4,13.9,-100.00,North,-999,-999.0,-999.0,44,-99.99,,,-99.99,WSDL version 420,2013-02-26 13:24:00,
2013-02-26 06:29:00,33.4,13.9,-100.00,North,-999,-999.0,-999.0,44,-99.99,,,-99.99,WSDL version 420,2013-02-26 13:29:00,
2013-02-26 06:34:00,33.5,13.9,-100.00,North,-999,-999.0,-999.0,44,-99.99,,,-99.99,WSDL version 420,2013-02-26 13:34:00,
2013-02-26 06:39:00,33.6,14.0,-100.00,North,-999,-999.0,-999.0,44,-99.99,,,-99.99,WSDL version 420,2013-02-26 13:39:00,
2013-02-26 06:44:00,33.6,14.5,-100.00,North,-999,-999.0,-999.0,45,-99.99,,,-99.99,WSDL version 420,2013-02-26 13:44:00,
2013-02-26 06:49:00,33.6,14.1,-100.00,North,-999,-999.0,-999.0,44,-99.99,,,-99.99,WSDL version 420,2013-02-26 13:49:00,
2013-02-26 06:54:00,33.4,13.9,-100.00,North,-999,-999.0,-999.0,44,-99.99,,,-99.99,WSDL version 420,2013-02-26 13:54:00,
2013-02-26 06:59:00,33.3,13.7,-100.00,North,-999,-999.0,-999.0,44,-99.99,,,-99.99,WSDL version 420,2013-02-26 13:59:00,
2013-02-26 07:04:00,33.2,13.6,-100.00,North,-999,-999.0,-999.0,44,-99.99,,,-99.99,WSDL version 420,2013-02-26 14:04:00,
2013-02-26 07:09:00,33.1,13.5,-100.00,North,-999,-999.0,-999.0,44,-99.99,,,-99.99,WSDL version 420,2013-02-26 14:09:00,
2013-02-26 07:14:00,32.9,13.4,-100.00,North,-999,-999.0,-999.0,44,-99.99,,,-99.99,WSDL version 420,2013-02-26 14:14:00,
2013-02-26 07:19:00,32.9,13.4,-100.00,North,-999,-999.0,-999.0,44,-99.99,,,-99.99,WSDL version 420,2013-02-26 14:19:00,
2013-02-26 07:24:00,32.9,13.4,-100.00,North,-999,-999.0,-999.0,44,-99.99,,,-99.99,WSDL version 420,2013-02-26 14:24:00,
2013-02-26 07:29:00,32.7,13.2,-100.00,North,-999,-999.0,-999.0,44,-99.99,,,-99.99,WSDL version 420,2013-02-26 14:29:00,
2013-02-26 07:34:00,32.7,13.2,-100.00,North,-999,-999.0,-999.0,44,-99.99,,,-99.99,WSDL version 420,2013-02-26 14:34:00,
2013-02-26 07:39:00,32.7,13.2,-100.00,North,-999,-999.0,-999.0,44,-99.99,,,-99.99,WSDL version 420,2013-02-26 14:39:00,
2013-02-26 07:44:00,32.7,13.2,-100.00,North,-999,-999.0,-999.0,44,-99.99,,,-99.99,WSDL version 420,2013-02-26 14:44:00,
2013-02-26 07:49:00,32.7,13.2,-100.00,North,-999,-999.0,-999.0,44,-99.99,,,-99.99,WSDL version 420,2013-02-26 14:49:00,
2013-02-26 07:54:00,32.7,13.2,-100.00,North,-999,-999.0,-999.0,44,-99.99,,,-99.99,WSDL version 420,2013-02-26 14:54:00,
2013-02-26 07:59:00,32.8,13.3,-100.00,North,-999,-999.0,-999.0,44,-99.99,,,-99.99,WSDL version 420,2013-02-26 14:59:00,
2013-02-26 08:04:00,32.9,13.4,-100.00,North,-999,-999.0,-999.0,44,-99.99,,,-99.99,WSDL version 420,2013-02-26 15:04:00,
2013-02-26 08:09:00,32.8,13.3,-100.00,North,-999,-999.0,-999.0,44,-99.99,,,-99.99,WSDL version 420,2013-02-26 15:09:00,
2013-02-26 08:14:00,32.7,13.2,-100.00,North,-999,-999.0,-999.0,44,-99.99,,,-99.99,WSDL version 420,2013-02-26 15:14:00,
2013-02-26 08:19:00,32.9,13.4,-100.00,North,-999,-999.0,-999.0,44,-99.99,,,-99.99,WSDL version 420,2013-02-26 15:19:00,
2013-02-26 08:24:00,33.2,13.6,-100.00,North,-999,-999.0,-999.0,44,-99.99,,,-99.99,WSDL version 420,2013-02-26 15:24:00,
2013-02-26 08:29:00,33.5,13.9,-100.00,North,-999,-999.0,-999.0,44,-99.99,,,-99.99,WSDL version 420,2013-02-26 15:29:00,
2013-02-26 08:34:00,33.9,14.3,-100.00,North,-999,-999.0,-999.0,44,-99.99,,,-99.99,WSDL version 420,2013-02-26 15:34:00,
2013-02-26 08:39:00,34.3,14.6,-100.00,North,-999,-999.0,-999.0,44,-99.99,,,-99.99,WSDL version 420,2013-02-26 15:39:00,
2013-02-26 08:44:00,34.5,14.9,-100.00,North,-999,-999.0,-999.0,44,-99.99,,,-99.99,WSDL version 420,2013-02-26 15:44:00,
2013-02-26 08:49:00,34.6,14.9,-100.00,North,-999,-999.0,-999.0,43,-99.99,,,-99.99,WSDL version 420,2013-02-26 15:49:00,
2013-02-26 08:54:00,34.8,14.6,-100.00,North,-999,-999.0,-999.0,43,-99.99,,,-99.99,WSDL version 420,2013-02-26 15:54:00,
2013-02-26 08:59:00,35.0,14.8,-100.00,North,-999,-999.0,-999.0,43,-99.99,,,-99.99,WSDL version 420,2013-02-26 15:59:00,
2013-02-26 09:14:00,36.3,16.0,-100.00,North,-999,-999.0,-999.0,43,-99.99,,,-99.99,WSDL version 420,2013-02-26 16:14:00,
2013-02-26 09:19:00,36.6,16.2,-100.00,North,-999,-999.0,-999.0,43,-99.99,,,-99.99,WSDL version 420,2013-02-26 16:19:00,
2013-02-26 09:24:00,37.0,16.6,-100.00,North,-999,-999.0,-999.0,43,-99.99,,,-99.99,WSDL version 420,2013-02-26 16:24:00,
2013-02-26 09:29:00,37.4,16.6,-100.00,North,-999,-999.0,-999.0,42,-99.99,,,-99.99,WSDL version 420,2013-02-26 16:29:00,
2013-02-26 09:34:00,37.9,16.8,-100.00,North,-999,-999.0,-999.0,42,-99.99,,,-99.99,WSDL version 420,2013-02-26 16:34:00,
2013-02-26 09:39:00,38.2,17.2,-100.00,North,-999,-999.0,-999.0,42,-99.99,,,-99.99,WSDL version 420,2013-02-26 16:39:00,
2013-02-26 09:44:00,38.9,17.8,-100.00,North,-999,-999.0,-999.0,42,-99.99,,,-99.99,WSDL version 420,2013-02-26 16:44:00,
2013-02-26 09:49:00,39.5,18.3,-100.00,North,-999,-999.0,-999.0,42,-99.99,,,-99.99,WSDL version 420,2013-02-26 16:49:00,
2013-02-26 09:54:00,39.9,18.2,-100.00,North,-999,-999.0,-999.0,41,-99.99,,,-99.99,WSDL version 420,2013-02-26 16:54:00,
2013-02-26 09:59:00,40.2,18.4,-100.00,North,-999,-999.0,-999.0,41,-99.99,,,-99.99,WSDL version 420,2013-02-26 16:59:00,
2013-02-26 10:04:00,40.9,19.0,-100.00,North,-999,-999.0,-999.0,41,-99.99,,,-99.99,WSDL version 420,2013-02-26 17:04:00,
2013-02-26 10:09:00,41.7,19.8,-100.00,North,-999,-999.0,-999.0,41,-99.99,,,-99.99,WSDL version 420,2013-02-26 17:09:00,
2013-02-26 10:14:00,43.0,20.5,-100.00,North,-999,-999.0,-999.0,40,-99.99,,,-99.99,WSDL version 420,2013-02-26 17:14:00,
2013-02-26 10:19:00,44.1,21.4,-100.00,North,-999,-999.0,-999.0,40,-99.99,,,-99.99,WSDL version 420,2013-02-26 17:19:00,
2013-02-26 10:24:00,44.9,22.1,-100.00,North,-999,-999.0,-999.0,40,-99.99,,,-99.99,WSDL version 420,2013-02-26 17:24:00,
2013-02-26 10:29:00,45.4,22.0,-100.00,North,-999,-999.0,-999.0,39,-99.99,,,-99.99,WSDL version 420,2013-02-26 17:29:00,
2013-02-26 10:34:00,45.8,22.3,-100.00,North,-999,-999.0,-999.0,39,-99.99,,,-99.99,WSDL version 420,2013-02-26 17:34:00,
2013-02-26 10:39:00,45.7,22.2,-100.00,North,-999,-999.0,-999.0,39,-99.99,,,-99.99,WSDL version 420,2013-02-26 17:39:00,
2013-02-26 10:44:00,46.0,22.3,-100.00,North,-999,-999.0,-999.0,39,-99.99,,,-99.99,WSDL version 420,2013-02-26 17:44:00,
2013-02-26 10:49:00,45.6,22.1,-100.00,North,-999,-999.0,-999.0,39,-99.99,,,-99.99,WSDL version 420,2013-02-26 17:49:00,
2013-02-26 10:54:00,46.9,22.6,-100.00,North,-999,-999.0,-999.0,38,-99.99,,,-99.99,WSDL version 420,2013-02-26 17:54:00,
2013-02-26 10:59:00,47.8,23.4,-100.00,North,-999,-999.0,-999.0,38,-99.99,,,-99.99,WSDL version 420,2013-02-26 17:59:00,
2013-02-26 11:04:00,48.4,23.9,-100.00,North,-999,-999.0,-999.0,38,-99.99,,,-99.99,WSDL version 420,2013-02-26 18:04:00,
2013-02-26 11:09:00,48.9,24.5,-100.00,North,-999,-999.0,-999.0,38,-99.99,,,-99.99,WSDL version 420,2013-02-26 18:09:00,
2013-02-26 11:14:00,49.2,24.7,-100.00,North,-999,-999.0,-999.0,38,-99.99,,,-99.99,WSDL version 420,2013-02-26 18:14:00,
2013-02-26 11:19:00,49.1,24.1,-100.00,North,-999,-999.0,-999.0,37,-99.99,,,-99.99,WSDL version 420,2013-02-26 18:19:00,
2013-02-26 11:24:00,48.6,23.5,-100.00,North,-999,-999.0,-999.0,37,-99.99,,,-99.99,WSDL version 420,2013-02-26 18:24:00,
2013-02-26 11:29:00,47.4,23.0,-100.00,North,-999,-999.0,-999.0,38,-99.99,,,-99.99,WSDL version 420,2013-02-26 18:29:00,
2013-02-26 11:34:00,46.9,22.4,-100.00,North,-999,-999.0,-999.0,38,-99.99,,,-99.99,WSDL version 420,2013-02-26 18:34:00,
2013-02-26 11:39:00,46.9,22.6,-100.00,North,-999,-999.0,-999.0,38,-99.99,,,-99.99,WSDL version 420,2013-02-26 18:39:00,
2013-02-26 11:44:00,47.1,22.5,-100.00,North,-999,-999.0,-999.0,38,-99.99,,,-99.99,WSDL version 420,2013-02-26 18:44:00,
2013-02-26 11:49:00,48.5,23.6,-100.00,North,-999,-999.0,-999.0,37,-99.99,,,-99.99,WSDL version 420,2013-02-26 18:49:00,
2013-02-26 11:54:00,47.8,22.8,-100.00,North,-999,-999.0,-999.0,37,-99.99,,,-99.99,WSDL version 420,2013-02-26 18:54:00,
2013-02-26 11:59:00,48.4,23.4,-100.00,North,-999,-999.0,-999.0,37,-99.99,,,-99.99,WSDL version 420,2013-02-26 18:59:00,
2013-02-26 12:04:00,49.3,24.1,-100.00,North,-999,-999.0,-999.0,37,-99.99,,,-99.99,WSDL version 420,2013-02-26 19:04:00,
2013-02-26 12:09:00,48.6,23.5,-100.00,North,-999,-999.0,-999.0,37,-99.99,,,-99.99,WSDL version 420,2013-02-26 19:09:00,
2013-02-26 12:14:00,48.8,23.7,-100.00,North,-999,-999.0,-999.0,37,-99.99,,,-99.99,WSDL version 420,2013-02-26 19:14:00,
2013-02-26 12:19:00,48.8,23.7,-100.00,North,-999,-999.0,-999.0,37,-99.99,,,-99.99,WSDL version 420,2013-02-26 19:19:00,
2013-02-26 12:24:00,47.7,22.7,-100.00,North,-999,-999.0,-999.0,37,-99.99,,,-99.99,WSDL version 420,2013-02-26 19:24:00,
2013-02-26 12:29:00,48.9,23.7,-100.00,North,-999,-999.0,-999.0,37,-99.99,,,-99.99,WSDL version 420,2013-02-26 19:29:00,
2013-02-26 12:34:00,48.5,23.4,-100.00,North,-999,-999.0,-999.0,37,-99.99,,,-99.99,WSDL version 420,2013-02-26 19:34:00,
2013-02-26 12:39:00,47.2,22.3,-100.00,North,-999,-999.0,-999.0,37,-99.99,,,-99.99,WSDL version 420,2013-02-26 19:39:00,
2013-02-26 12:44:00,46.3,21.5,-100.00,North,-999,-999.0,-999.0,37,-99.99,,,-99.99,WSDL version 420,2013-02-26 19:44:00,
2013-02-26 12:49:00,45.4,20.7,-100.00,North,-999,-999.0,-999.0,37,-99.99,,,-99.99,WSDL version 420,2013-02-26 19:49:00,
2013-02-26 12:54:00,46.6,21.7,-100.00,North,-999,-999.0,-999.0,37,-99.99,,,-99.99,WSDL version 420,2013-02-26 19:54:00,
2013-02-26 12:59:00,48.0,23.0,-100.00,North,-999,-999.0,-999.0,37,-99.99,,,-99.99,WSDL version 420,2013-02-26 19:59:00,
2013-02-26 13:04:00,48.5,23.5,-100.00,North,-999,-999.0,-999.0,37,-99.99,,,-99.99,WSDL version 420,2013-02-26 20:04:00,
2013-02-26 13:09:00,47.7,22.7,-100.00,North,-999,-999.0,-999.0,37,-99.99,,,-99.99,WSDL version 420,2013-02-26 20:09:00,
2013-02-26 13:14:00,47.1,22.2,-100.00,North,-999,-999.0,-999.0,37,-99.99,,,-99.99,WSDL version 420,2013-02-26 20:14:00,
2013-02-26 13:19:00,46.6,21.7,-100.00,North,-999,-999.0,-999.0,37,-99.99,,,-99.99,WSDL version 420,2013-02-26 20:19:00,
2013-02-26 13:24:00,46.2,21.4,-100.00,North,-999,-999.0,-999.0,37,-99.99,,,-99.99,WSDL version 420,2013-02-26 20:24:00,
2013-02-26 13:29:00,45.9,21.1,-100.00,North,-999,-999.0,-999.0,37,-99.99,,,-99.99,WSDL version 420,2013-02-26 20:29:00,
2013-02-26 13:34:00,46.1,21.2,-100.00,North,-999,-999.0,-999.0,37,-99.99,,,-99.99,WSDL version 420,2013-02-26 20:34:00,
2013-02-26 13:39:00,45.8,21.0,-100.00,North,-999,-999.0,-999.0,37,-99.99,,,-99.99,WSDL version 420,2013-02-26 20:39:00,
2013-02-26 13:44:00,45.5,20.7,-100.00,North,-999,-999.0,-999.0,37,-99.99,,,-99.99,WSDL version 420,2013-02-26 20:44:00,
2013-02-26 13:49:00,45.5,20.7,-100.00,North,-999,-999.0,-999.0,37,-99.99,,,-99.99,WSDL version 420,2013-02-26 20:49:00,
2013-02-26 13:54:00,45.3,20.5,-100.00,North,-999,-999.0,-999.0,37,-99.99,,,-99.99,WSDL version 420,2013-02-26 20:54:00,
2013-02-26 13:59:00,45.1,20.4,-100.00,North,-999,-999.0,-999.0,37,-99.99,,,-99.99,WSDL version 420,2013-02-26 20:59:00,
2013-02-26 14:04:00,45.1,20.3,-100.00,North,-999,-999.0,-999.0,37,-99.99,,,-99.99,WSDL version 420,2013-02-26 21:04:00,
2013-02-26 14:09:00,44.9,20.2,-100.00,North,-999,-999.0,-999.0,37,-99.99,,,-99.99,WSDL version 420,2013-02-26 21:09:00,
2013-02-26 14:14:00,44.7,20.1,-100.00,North,-999,-999.0,-999.0,38,-99.99,,,-99.99,WSDL version 420,2013-02-26 21:14:00,
2013-02-26 14:19:00,44.2,20.1,-100.00,North,-999,-999.0,-999.0,37,-99.99,,,-99.99,WSDL version 420,2013-02-26 21:19:00,
2013-02-26 14:24:00,43.9,19.9,-100.00,North,-999,-999.0,-999.0,38,-99.99,,,-99.99,WSDL version 420,2013-02-26 21:24:00,
2013-02-26 14:29:00,43.9,19.9,-100.00,North,-999,-999.0,-999.0,38,-99.99,,,-99.99,WSDL version 420,2013-02-26 21:29:00,
2013-02-26 14:34:00,43.8,19.8,-100.00,North,-999,-999.0,-999.0,38,-99.99,,,-99.99,WSDL version 420,2013-02-26 21:34:00,
2013-02-26 14:39:00,43.4,19.2,-100.00,North,-999,-999.0,-999.0,37,-99.99,,,-99.99,WSDL version 420,2013-02-26 21:39:00,
2013-02-26 14:44:00,43.2,19.2,-100.00,North,-999,-999.0,-999.0,38,-99.99,,,-99.99,WSDL version 420,2013-02-26 21:44:00,
2013-02-26 14:49:00,43.5,19.5,-100.00,North,-999,-999.0,-999.0,38,-99.99,,,-99.99,WSDL version 420,2013-02-26 21:49:00,
2013-02-26 14:54:00,43.5,19.6,-100.00,North,-999,-999.0,-999.0,38,-99.99,,,-99.99,WSDL version 420,2013-02-26 21:54:00,
2013-02-26 14:59:00,43.5,19.6,-100.00,North,-999,-999.0,-999.0,38,-99.99,,,-99.99,WSDL version 420,2013-02-26 21:59:00,
2013-02-26 15:14:00,43.5,19.6,-100.00,North,-999,-999.0,-999.0,38,-99.99,,,-99.99,WSDL version 420,2013-02-26 22:14:00,
2013-02-26 15:19:00,43.5,19.6,-100.00,North,-999,-999.0,-999.0,38,-99.99,,,-99.99,WSDL version 420,2013-02-26 22:19:00,
2013-02-26 15:24:00,43.5,19.6,-100.00,North,-999,-999.0,-999.0,38,-99.99,,,-99.99,WSDL version 420,2013-02-26 22:24:00,
2013-02-26 15:29:00,43.5,19.6,-100.00,North,-999,-999.0,-999.0,38,-99.99,,,-99.99,WSDL version 420,2013-02-26 22:29:00,
2013-02-26 15:34:00,43.4,19.5,-100.00,North,-999,-999.0,-999.0,38,-99.99,,,-99.99,WSDL version 420,2013-02-26 22:34:00,
2013-02-26 15:39:00,43.2,19.3,-100.00,North,-999,-999.0,-999.0,38,-99.99,,,-99.99,WSDL version 420,2013-02-26 22:39:00,
2013-02-26 15:44:00,43.0,19.1,-100.00,North,-999,-999.0,-999.0,38,-99.99,,,-99.99,WSDL version 420,2013-02-26 22:44:00,
2013-02-26 15:49:00,42.8,18.9,-100.00,North,-999,-999.0,-999.0,38,-99.99,,,-99.99,WSDL version 420,2013-02-26 22:49:00,
2013-02-26 15:54:00,42.5,18.7,-100.00,North,-999,-999.0,-999.0,38,-99.99,,,-99.99,WSDL version 420,2013-02-26 22:54:00,
2013-02-26 15:59:00,42.3,18.5,-100.00,North,-999,-999.0,-999.0,38,-99.99,,,-99.99,WSDL version 420,2013-02-26 22:59:00,
2013-02-26 16:04:00,42.3,18.5,-100.00,North,-999,-999.0,-999.0,38,-99.99,,,-99.99,WSDL version 420,2013-02-26 23:04:00,
2013-02-26 16:09:00,42.1,18.3,-100.00,North,-999,-999.0,-999.0,38,-99.99,,,-99.99,WSDL version 420,2013-02-26 23:09:00,
2013-02-26 16:14:00,41.7,18.0,-100.00,North,-999,-999.0,-999.0,38,-99.99,,,-99.99,WSDL version 420,2013-02-26 23:14:00,
2013-02-26 16:19:00,41.5,17.8,-100.00,North,-999,-999.0,-999.0,38,-99.99,,,-99.99,WSDL version 420,2013-02-26 23:19:00,
2013-02-26 16:24:00,41.3,17.6,-100.00,North,-999,-999.0,-999.0,38,-99.99,,,-99.99,WSDL version 420,2013-02-26 23:24:00,
2013-02-26 16:29:00,41.0,17.4,-100.00,North,-999,-999.0,-999.0,38,-99.99,,,-99.99,WSDL version 420,2013-02-26 23:29:00,
2013-02-26 16:34:00,40.8,17.8,-100.00,North,-999,-999.0,-999.0,39,-99.99,,,-99.99,WSDL version 420,2013-02-26 23:34:00,
2013-02-26 16:39:00,40.7,17.6,-100.00,North,-999,-999.0,-999.0,39,-99.99,,,-99.99,WSDL version 420,2013-02-26 23:39:00,
2013-02-26 16:44:00,40.6,17.5,-100.00,North,-999,-999.0,-999.0,39,-99.99,,,-99.99,WSDL version 420,2013-02-26 23:44:00,
2013-02-26 16:49:00,40.3,17.3,-100.00,North,-999,-999.0,-999.0,39,-99.99,,,-99.99,WSDL version 420,2013-02-26 23:49:00,
2013-02-26 16:54:00,40.3,17.3,-100.00,North,-999,-999.0,-999.0,39,-99.99,,,-99.99,WSDL version 420,2013-02-26 23:54:00,
2013-02-26 16:59:00,40.3,17.3,-100.00,North,-999,-999.0,-999.0,39,-99.99,,,-99.99,WSDL version 420,2013-02-26 23:59:00,
2013-02-26 17:04:00,40.3,17.3,-100.00,North,-999,-999.0,-999.0,39,-99.99,,,-99.99,WSDL version 420,2013-02-27 00:04:00,
2013-02-26 17:09:00,40.3,17.3,-100.00,North,-999,-999.0,-999.0,39,-99.99,,,-99.99,WSDL version 420,2013-02-27 00:09:00,
2013-02-26 17:14:00,40.3,17.3,-100.00,North,-999,-999.0,-999.0,39,-99.99,,,-99.99,WSDL version 420,2013-02-27 00:14:00,
2013-02-26 17:19:00,40.3,17.3,-100.00,North,-999,-999.0,-999.0,39,-99.99,,,-99.99,WSDL version 420,2013-02-27 00:19:00,
2013-02-26 17:24:00,40.1,17.1,-100.00,North,-999,-999.0,-999.0,39,-99.99,,,-99.99,WSDL version 420,2013-02-27 00:24:00,
2013-02-26 17:29:00,39.7,16.8,-100.00,North,-999,-999.0,-999.0,39,-99.99,,,-99.99,WSDL version 420,2013-02-27 00:29:00,
2013-02-26 17:34:00,39.4,16.5,-100.00,North,-999,-999.0,-999.0,39,-99.99,,,-99.99,WSDL version 420,2013-02-27 00:34:00,
2013-02-26 17:39:00,39.2,16.3,-100.00,North,-999,-999.0,-999.0,39,-99.99,,,-99.99,WSDL version 420,2013-02-27 00:39:00,
2013-02-26 17:44:00,39.1,16.5,-100.00,North,-999,-999.0,-999.0,40,-99.99,,,-99.99,WSDL version 420,2013-02-27 00:44:00,
2013-02-26 17:49:00,39.0,16.7,-100.00,North,-999,-999.0,-999.0,40,-99.99,,,-99.99,WSDL version 420,2013-02-27 00:49:00,
2013-02-26 17:54:00,38.8,16.6,-100.00,North,-999,-999.0,-999.0,40,-99.99,,,-99.99,WSDL version 420,2013-02-27 00:54:00,
2013-02-26 17:59:00,38.8,16.5,-100.00,North,-999,-999.0,-999.0,40,-99.99,,,-99.99,WSDL version 420,2013-02-27 00:59:00,
2013-02-26 18:04:00,38.6,16.4,-100.00,North,-999,-999.0,-999.0,40,-99.99,,,-99.99,WSDL version 420,2013-02-27 01:04:00,
2013-02-26 18:09:00,38.3,16.1,-100.00,North,-999,-999.0,-999.0,40,-99.99,,,-99.99,WSDL version 420,2013-02-27 01:09:00,
2013-02-26 18:14:00,38.0,15.8,-100.00,North,-999,-999.0,-999.0,40,-99.99,,,-99.99,WSDL version 420,2013-02-27 01:14:00,
2013-02-26 18:19:00,37.6,15.4,-100.00,North,-999,-999.0,-999.0,40,-99.99,,,-99.99,WSDL version 420,2013-02-27 01:19:00,
2013-02-26 18:24:00,37.2,15.1,-100.00,North,-999,-999.0,-999.0,40,-99.99,,,-99.99,WSDL version 420,2013-02-27 01:24:00,
2013-02-26 18:29:00,36.9,14.8,-100.00,North,-999,-999.0,-999.0,40,-99.99,,,-99.99,WSDL version 420,2013-02-27 01:29:00,
2013-02-26 18:34:00,36.7,14.7,-100.00,North,-999,-999.0,-999.0,40,-99.99,,,-99.99,WSDL version 420,2013-02-27 01:34:00,
2013-02-26 18:39:00,36.5,14.4,-100.00,North,-999,-999.0,-999.0,40,-99.99,,,-99.99,WSDL version 420,2013-02-27 01:39:00,
2013-02-26 18:44:00,36.3,14.3,-100.00,North,-999,-999.0,-999.0,40,-99.99,,,-99.99,WSDL version 420,2013-02-27 01:44:00,
2013-02-26 18:49:00,36.1,14.1,-100.00,North,-999,-999.0,-999.0,40,-99.99,,,-99.99,WSDL version 420,2013-02-27 01:49:00,
2013-02-26 18:54:00,35.8,13.9,-100.00,North,-999,-999.0,-999.0,40,-99.99,,,-99.99,WSDL version 420,2013-02-27 01:54:00,
2013-02-26 18:59:00,35.7,13.7,-100.00,North,-999,-999.0,-999.0,40,-99.99,,,-99.99,WSDL version 420,2013-02-27 01:59:00,
2013-02-26 19:04:00,35.5,14.1,-100.00,North,-999,-999.0,-999.0,41,-99.99,,,-99.99,WSDL version 420,2013-02-27 02:04:00,
2013-02-26 19:09:00,35.3,14.0,-100.00,North,-999,-999.0,-999.0,41,-99.99,,,-99.99,WSDL version 420,2013-02-27 02:09:00,
2013-02-26 19:14:00,35.1,13.7,-100.00,North,-999,-999.0,-999.0,41,-99.99,,,-99.99,WSDL version 420,2013-02-27 02:14:00,
2013-02-26 19:19:00,35.0,13.7,-100.00,North,-999,-999.0,-999.0,41,-99.99,,,-99.99,WSDL version 420,2013-02-27 02:19:00,
2013-02-26 19:24:00,34.9,13.6,-100.00,North,-999,-999.0,-999.0,42,-99.99,,,-99.99,WSDL version 420,2013-02-27 02:24:00,
2013-02-26 19:29:00,34.7,14.0,-100.00,North,-999,-999.0,-999.0,42,-99.99,,,-99.99,WSDL version 420,2013-02-27 02:29:00,
2013-02-26 19:34:00,34.5,13.8,-100.00,North,-999,-999.0,-999.0,42,-99.99,,,-99.99,WSDL version 420,2013-02-27 02:34:00,
2013-02-26 19:39:00,34.4,13.7,-100.00,North,-999,-999.0,-999.0,42,-99.99,,,-99.99,WSDL version 420,2013-02-27 02:39:00,
2013-02-26 19:44:00,34.3,13.6,-100.00,North,-999,-999.0,-999.0,42,-99.99,,,-99.99,WSDL version 420,2013-02-27 02:44:00,
2013-02-26 19:49:00,34.2,13.5,-100.00,North,-999,-999.0,-999.0,42,-99.99,,,-99.99,WSDL version 420,2013-02-27 02:49:00,
2013-02-26 19:54:00,33.9,13.5,-100.00,North,-999,-999.0,-999.0,43,-99.99,,,-99.99,WSDL version 420,2013-02-27 02:54:00,
2013-02-26 19:59:00,33.8,13.7,-100.00,North,-999,-999.0,-999.0,43,-99.99,,,-99.99,WSDL version 420,2013-02-27 02:59:00,
2013-02-26 20:04:00,33.7,13.5,-100.00,North,-999,-999.0,-999.0,43,-99.99,,,-99.99,WSDL version 420,2013-02-27 03:04:00,
2013-02-26 20:09:00,33.6,13.5,-100.00,North,-999,-999.0,-999.0,43,-99.99,,,-99.99,WSDL version 420,2013-02-27 03:09:00,
2013-02-26 20:14:00,33.6,13.9,-100.00,North,-999,-999.0,-999.0,44,-99.99,,,-99.99,WSDL version 420,2013-02-27 03:14:00,
2013-02-26 20:19:00,33.4,13.9,-100.00,North,-999,-999.0,-999.0,44,-99.99,,,-99.99,WSDL version 420,2013-02-27 03:19:00,
2013-02-26 20:24:00,33.3,13.7,-100.00,North,-999,-999.0,-999.0,44,-99.99,,,-99.99,WSDL version 420,2013-02-27 03:24:00,
2013-02-26 20:29:00,33.4,13.8,-100.00,North,-999,-999.0,-999.0,44,-99.99,,,-99.99,WSDL version 420,2013-02-27 03:29:00,
2013-02-26 20:34:00,33.5,13.9,-100.00,North,-999,-999.0,-999.0,44,-99.99,,,-99.99,WSDL version 420,2013-02-27 03:34:00,
2013-02-26 20:39:00,33.6,14.0,-100.00,North,-999,-999.0,-999.0,44,-99.99,,,-99.99,WSDL version 420,2013-02-27 03:39:00,
2013-02-26 20:44:00,33.6,14.0,-100.00,North,-999,-999.0,-999.0,44,-99.99,,,-99.99,WSDL version 420,2013-02-27 03:44:00,
2013-02-26 20:49:00,33.7,14.1,-100.00,North,-999,-999.0,-999.0,44,-99.99,,,-99.99,WSDL version 420,2013-02-27 03:49:00,
2013-02-26 20:54:00,33.8,14.2,-100.00,North,-999,-999.0,-999.0,44,-99.99,,,-99.99,WSDL version 420,2013-02-27 03:54:00,
2013-02-26 20:59:00,33.8,14.2,-100.00,North,-999,-999.0,-999.0,44,-99.99,,,-99.99,WSDL version 420,2013-02-27 03:59:00,
2013-02-26 21:14:00,33.8,14.2,-100.00,North,-999,-999.0,-999.0,44,-99.99,,,-99.99,WSDL version 420,2013-02-27 04:14:00,
2013-02-26 21:19:00,33.8,14.2,-100.00,North,-999,-999.0,-999.0,44,-99.99,,,-99.99,WSDL version 420,2013-02-27 04:19:00,
2013-02-26 21:24:00,33.8,14.2,-100.00,North,-999,-999.0,-999.0,44,-99.99,,,-99.99,WSDL version 420,2013-02-27 04:24:00,
2013-02-26 21:29:00,33.8,14.2,-100.00,North,-999,-999.0,-999.0,44,-99.99,,,-99.99,WSDL version 420,2013-02-27 04:29:00,
2013-02-26 21:34:00,33.6,14.5,-100.00,North,-999,-999.0,-999.0,45,-99.99,,,-99.99,WSDL version 420,2013-02-27 04:34:00,
2013-02-26 21:39:00,33.6,14.5,-100.00,North,-999,-999.0,-999.0,45,-99.99,,,-99.99,WSDL version 420,2013-02-27 04:39:00,
2013-02-26 21:44:00,33.6,14.5,-100.00,North,-999,-999.0,-999.0,45,-99.99,,,-99.99,WSDL version 420,2013-02-27 04:44:00,
2013-02-26 21:49:00,33.6,14.5,-100.00,North,-999,-999.0,-999.0,45,-99.99,,,-99.99,WSDL version 420,2013-02-27 04:49:00,
2013-02-26 21:54:00,33.6,14.5,-100.00,North,-999,-999.0,-999.0,45,-99.99,,,-99.99,WSDL version 420,2013-02-27 04:54:00,
2013-02-26 21:59:00,33.4,14.4,-100.00,North,-999,-999.0,-999.0,45,-99.99,,,-99.99,WSDL version 420,2013-02-27 04:59:00,
2013-02-26 22:00:00,33.4,14.3,-100.00,North,-999,-999.0,-999.0,45,-99.99,,,-99.99,WSDL version 420,2013-02-27 05:00:00,
2013-02-26 22:03:00,33.2,14.2,-100.00,North,-999,-999.0,-999.0,45,-99.99,,,-99.99,WSDL version 420,2013-02-27 05:03:00,
2013-02-26 22:06:00,33.1,14.1,-100.00,North,-999,-999.0,-999.0,45,-99.99,,,-99.99,WSDL version 420,2013-02-27 05:06:00,
2013-02-26 22:09:00,33.1,14.0,-100.00,North,-999,-999.0,-999.0,45,-99.99,,,-99.99,WSDL version 420,2013-02-27 05:09:00,
2013-02-26 22:14:00,33.0,14.0,-100.00,North,-999,-999.0,-999.0,45,-99.99,,,-99.99,WSDL version 420,2013-02-27 05:14:00,
2013-02-26 22:19:00,32.9,13.9,-100.00,North,-999,-999.0,-999.0,45,-99.99,,,-99.99,WSDL version 420,2013-02-27 05:19:00,
2013-02-26 22:24:00,32.8,13.8,-100.00,North,-999,-999.0,-999.0,45,-99.99,,,-99.99,WSDL version 420,2013-02-27 05:24:00,
2013-02-26 22:29:00,32.5,13.6,-100.00,North,-999,-999.0,-999.0,45,-99.99,,,-99.99,WSDL version 420,2013-02-27 05:29:00,
2013-02-26 22:34:00,32.5,14.0,-100.00,North,-999,-999.0,-999.0,46,-99.99,,,-99.99,WSDL version 420,2013-02-27 05:34:00,
2013-02-26 22:39:00,32.6,14.1,-100.00,North,-999,-999.0,-999.0,46,-99.99,,,-99.99,WSDL version 420,2013-02-27 05:39:00,
2013-02-26 22:44:00,32.4,13.9,-100.00,North,-999,-999.0,-999.0,46,-99.99,,,-99.99,WSDL version 420,2013-02-27 05:44:00,
2013-02-26 22:49:00,32.2,14.0,-100.00,North,-999,-999.0,-999.0,46,-99.99,,,-99.99,WSDL version 420,2013-02-27 05:49:00,
2013-02-26 22:54:00,31.9,15.5,-100.00,North,-999,-999.0,-999.0,46,-99.99,,,-99.99,WSDL version 420,2013-02-27 05:54:00,
2013-02-26 22:59:00,31.7,15.3,-100.00,North,-999,-999.0,-999.0,46,-99.99,,,-99.99,WSDL version 420,2013-02-27 05:59:00,
2013-02-26 23:04:00,31.6,15.3,-100.00,North,-999,-999.0,-999.0,46,-99.99,,,-99.99,WSDL version 420,2013-02-27 06:04:00,
2013-02-26 23:09:00,31.6,15.2,-100.00,North,-999,-999.0,-999.0,46,-99.99,,,-99.99,WSDL version 420,2013-02-27 06:09:00,
2013-02-26 23:14:00,31.4,15.4,-100.00,North,-999,-999.0,-999.0,47,-99.99,,,-99.99,WSDL version 420,2013-02-27 06:14:00,
2013-02-26 23:19:00,31.3,15.4,-100.00,North,-999,-999.0,-999.0,47,-99.99,,,-99.99,WSDL version 420,2013-02-27 06:19:00,
2013-02-26 23:24:00,31.1,15.2,-100.00,North,-999,-999.0,-999.0,47,-99.99,,,-99.99,WSDL version 420,2013-02-27 06:24:00,
2013-02-26 23:29:00,31.0,15.1,-100.00,North,-999,-999.0,-999.0,47,-99.99,,,-99.99,WSDL version 420,2013-02-27 06:29:00,
2013-02-26 23:34:00,30.9,15.0,-100.00,North,-999,-999.0,-999.0,47,-99.99,,,-99.99,WSDL version 420,2013-02-27 06:34:00,
2013-02-26 23:39:00,30.7,14.9,-100.00,North,-999,-999.0,-999.0,47,-99.99,,,-99.99,WSDL version 420,2013-02-27 06:39:00,
2013-02-26 23:44:00,30.6,14.7,-100.00,North,-999,-999.0,-999.0,47,-99.99,,,-99.99,WSDL version 420,2013-02-27 06:44:00,
2013-02-26 23:49:00,30.4,14.6,-100.00,North,-999,-999.0,-999.0,48,-99.99,,,-99.99,WSDL version 420,2013-02-27 06:49:00,
2013-02-26 23:54:00,30.2,14.8,-100.00,North,-999,-999.0,-999.0,48,-99.99,,,-99.99,WSDL version 420,2013-02-27 06:54:00,
2013-02-26 23:59:00,30.0,14.5,-100.00,North,-999,-999.0,-999.0,48,-99.99,,,-99.99,WSDL version 420,2013-02-27 06:59:00,